Time,TemperatureF,DewpointF,PressureIn,WindDirection,WindDirectionDegrees,WindSpeedMPH,WindSpeedGustMPH,Humidity,HourlyPrecipIn,Conditions,Clouds,dailyrainin,SoftwareType,DateUTC
2013-01-24 00:03:00,16.0,12.0,30.12,West,271,0.0,2.0,85,0.00,,,0.00,,2013-01-24 05:03:00,
2013-01-24 00:12:00,16.0,12.0,30.12,West,271,0.0,2.0,85,0.00,,,0.00,,2013-01-24 05:12:00,
2013-01-24 00:22:00,15.0,11.0,30.13,WNW,291,0.0,3.0,85,0.00,,,0.00,,2013-01-24 05:22:00,
2013-01-24 00:33:00,14.0,10.0,30.14,WNW,291,0.0,1.0,85,0.00,,,0.00,,2013-01-24 05:33:00,
2013-01-24 00:43:00,14.0,10.0,30.14,WNW,291,0.0,1.0,85,0.00,,,0.00,,2013-01-24 05:43:00,
2013-01-24 00:53:00,14.0,11.0,30.14,NW,312,1.0,3.0,87,0.00,,,0.00,,2013-01-24 05:53:00,
2013-01-24 01:03:00,14.0,11.0,30.15,NW,317,3.0,5.0,87,0.00,,,0.00,,2013-01-24 06:03:00,
2013-01-24 01:12:00,14.0,11.0,30.15,NW,317,3.0,5.0,87,0.00,,,0.00,,2013-01-24 06:12:00,
2013-01-24 01:22:00,14.0,11.0,30.16,WNW,302,3.0,7.0,87,0.00,,,0.00,,2013-01-24 06:22:00,
2013-01-24 01:32:00,14.0,11.0,30.17,NW,319,5.0,9.0,86,0.00,,,0.00,,2013-01-24 06:32:00,
2013-01-24 01:42:00,14.0,11.0,30.17,NW,319,5.0,9.0,86,0.00,,,0.00,,2013-01-24 06:42:00,
2013-01-24 01:52:00,13.0,9.0,30.17,NW,315,6.0,11.0,82,0.00,,,0.00,,2013-01-24 06:52:00,
2013-01-24 02:03:00,12.0,8.0,30.19,NW,305,4.0,8.0,82,0.00,,,0.00,,2013-01-24 07:03:00,
2013-01-24 02:12:00,12.0,8.0,30.19,NW,305,4.0,8.0,82,0.00,,,0.00,,2013-01-24 07:12:00,
2013-01-24 02:23:00,11.0,7.0,30.20,NW,317,2.0,5.0,82,0.00,,,0.00,,2013-01-24 07:23:00,
2013-01-24 02:33:00,10.0,6.0,30.21,NW,314,4.0,6.0,84,0.00,,,0.00,,2013-01-24 07:33:00,
2013-01-24 02:43:00,10.0,6.0,30.21,NW,314,4.0,6.0,84,0.00,,,0.00,,2013-01-24 07:43:00,
2013-01-24 02:52:00,11.0,7.0,30.22,NW,309,4.0,9.0,82,0.00,,,0.00,,2013-01-24 07:52:00,
2013-01-24 03:03:00,11.0,7.0,30.24,NW,307,5.0,9.0,82,0.00,,,0.00,,2013-01-24 08:03:00,
2013-01-24 03:13:00,11.0,7.0,30.24,NW,307,5.0,9.0,82,0.00,,,0.00,,2013-01-24 08:13:00,
2013-01-24 03:23:00,10.0,6.0,30.25,NW,318,6.0,9.0,82,0.00,,,0.00,,2013-01-24 08:23:00,
2013-01-24 03:33:00,10.0,6.0,30.27,NNW,328,6.0,9.0,82,0.00,,,0.00,,2013-01-24 08:33:00,
2013-01-24 03:43:00,10.0,6.0,30.27,NNW,328,6.0,9.0,82,0.00,,,0.00,,2013-01-24 08:43:00,
2013-01-24 03:52:00,10.0,6.0,30.28,NW,316,5.0,9.0,82,0.00,,,0.00,,2013-01-24 08:52:00,
2013-01-24 04:03:00,10.0,6.0,30.28,NW,316,5.0,9.0,82,0.00,,,0.00,,2013-01-24 09:03:00,
2013-01-24 04:13:00,10.0,6.0,30.28,NW,316,5.0,9.0,82,0.00,,,0.00,,2013-01-24 09:13:00,
2013-01-24 04:23:00,10.0,5.0,30.31,NW,309,5.0,8.0,81,0.00,,,0.00,,2013-01-24 09:23:00,
2013-01-24 04:33:00,9.0,5.0,30.32,North,353,5.0,8.0,82,0.00,,,0.00,,2013-01-24 09:33:00,
2013-01-24 04:43:00,9.0,5.0,30.32,North,353,5.0,8.0,82,0.00,,,0.00,,2013-01-24 09:43:00,
2013-01-24 04:52:00,9.0,5.0,30.33,NW,305,6.0,9.0,82,0.00,,,0.00,,2013-01-24 09:52:00,
2013-01-24 05:03:00,9.0,5.0,30.34,NW,319,5.0,8.0,82,0.00,,,0.00,,2013-01-24 10:03:00,
2013-01-24 05:12:00,9.0,5.0,30.34,NW,319,5.0,8.0,82,0.00,,,0.00,,2013-01-24 10:12:00,
2013-01-24 05:23:00,8.0,4.0,30.35,NW,313,5.0,8.0,82,0.00,,,0.00,,2013-01-24 10:23:00,
2013-01-24 05:33:00,8.0,4.0,30.36,North,352,5.0,10.0,82,0.00,,,0.00,,2013-01-24 10:33:00,
2013-01-24 05:43:00,8.0,4.0,30.36,North,352,5.0,10.0,82,0.00,,,0.00,,2013-01-24 10:43:00,
2013-01-24 05:52:00,8.0,4.0,30.37,NW,319,5.0,10.0,82,0.00,,,0.00,,2013-01-24 10:52:00,
2013-01-24 06:03:00,7.0,3.0,30.39,NW,319,5.0,9.0,83,0.00,,,0.00,,2013-01-24 11:03:00,
2013-01-24 06:12:00,7.0,3.0,30.39,NW,319,5.0,9.0,83,0.00,,,0.00,,2013-01-24 11:12:00,
2013-01-24 06:23:00,7.0,3.0,30.40,NW,319,4.0,9.0,83,0.00,,,0.00,,2013-01-24 11:23:00,
2013-01-24 06:33:00,7.0,3.0,30.41,NNW,331,5.0,9.0,82,0.00,,,0.00,,2013-01-24 11:33:00,
2013-01-24 06:43:00,7.0,3.0,30.41,NNW,331,5.0,9.0,82,0.00,,,0.00,,2013-01-24 11:43:00,
2013-01-24 06:53:00,7.0,3.0,30.42,NW,309,5.0,8.0,83,0.00,,,0.00,,2013-01-24 11:53:00,
2013-01-24 07:03:00,7.0,3.0,30.42,NW,323,5.0,10.0,82,0.00,,,0.00,,2013-01-24 12:03:00,
2013-01-24 07:12:00,7.0,3.0,30.42,NW,323,5.0,10.0,82,0.00,,,0.00,,2013-01-24 12:12:00,
2013-01-24 07:23:00,6.0,2.0,30.43,NW,309,4.0,9.0,82,0.00,,,0.00,,2013-01-24 12:23:00,
2013-01-24 07:33:00,5.0,1.0,30.45,NW,309,3.0,5.0,82,0.00,,,0.00,,2013-01-24 12:33:00,
2013-01-24 07:43:00,5.0,1.0,30.45,NW,309,3.0,5.0,82,0.00,,,0.00,,2013-01-24 12:43:00,
2013-01-24 07:53:00,5.0,1.0,30.46,NW,311,3.0,6.0,83,0.00,,,0.00,,2013-01-24 12:53:00,
2013-01-24 08:03:00,5.0,1.0,30.47,NW,324,3.0,5.0,82,0.00,,,0.00,,2013-01-24 13:03:00,
2013-01-24 08:13:00,5.0,1.0,30.47,NW,324,3.0,5.0,82,0.00,,,0.00,,2013-01-24 13:13:00,
2013-01-24 08:23:00,5.0,1.0,30.49,NW,314,3.0,5.0,82,0.00,,,0.00,,2013-01-24 13:23:00,
2013-01-24 08:33:00,5.0,1.0,30.50,NW,312,3.0,5.0,82,0.00,,,0.00,,2013-01-24 13:33:00,
2013-01-24 08:43:00,5.0,1.0,30.50,NW,312,3.0,5.0,82,0.00,,,0.00,,2013-01-24 13:43:00,
2013-01-24 08:53:00,5.0,1.0,30.51,NW,317,3.0,5.0,82,0.00,,,0.00,,2013-01-24 13:53:00,
2013-01-24 09:03:00,5.0,1.0,30.51,NW,318,2.0,5.0,82,0.00,,,0.00,,2013-01-24 14:03:00,
2013-01-24 09:12:00,5.0,1.0,30.51,NW,318,2.0,5.0,82,0.00,,,0.00,,2013-01-24 14:12:00,
2013-01-24 09:23:00,7.0,3.0,30.52,NW,312,4.0,8.0,82,0.00,,,0.00,,2013-01-24 14:23:00,
2013-01-24 09:33:00,8.0,3.0,30.53,NNW,333,4.0,9.0,80,0.00,,,0.00,,2013-01-24 14:33:00,
2013-01-24 09:43:00,8.0,3.0,30.53,NNW,333,4.0,9.0,80,0.00,,,0.00,,2013-01-24 14:43:00,
2013-01-24 09:53:00,9.0,4.0,30.54,North,357,4.0,8.0,80,0.00,,,0.00,,2013-01-24 14:53:00,
2013-01-24 10:04:00,10.0,5.0,30.56,NNW,328,5.0,11.0,79,0.00,,,0.00,,2013-01-24 15:04:00,
2013-01-24 10:13:00,10.0,5.0,30.56,NNW,328,5.0,11.0,79,0.00,,,0.00,,2013-01-24 15:13:00,
2013-01-24 10:23:00,10.0,5.0,30.57,North,4,5.0,10.0,79,0.00,,,0.00,,2013-01-24 15:23:00,
2013-01-24 10:33:00,10.0,5.0,30.57,North,4,5.0,10.0,79,0.00,,,0.00,,2013-01-24 15:33:00,
2013-01-24 10:43:00,10.0,5.0,30.58,North,4,7.0,12.0,78,0.00,,,0.00,,2013-01-24 15:43:00,
2013-01-24 10:53:00,11.0,6.0,30.60,North,356,4.0,9.0,78,0.00,,,0.00,,2013-01-24 15:53:00,
2013-01-24 11:04:00,12.0,6.0,30.61,NNE,28,5.0,8.0,77,0.00,,,0.00,,2013-01-24 16:04:00,
2013-01-24 11:12:00,12.0,6.0,30.61,NNE,28,5.0,8.0,77,0.00,,,0.00,,2013-01-24 16:12:00,
2013-01-24 11:23:00,12.0,6.0,30.62,NE,53,5.0,9.0,76,0.00,,,0.00,,2013-01-24 16:23:00,
2013-01-24 11:33:00,13.0,7.0,30.63,NNE,19,4.0,8.0,75,0.00,,,0.00,,2013-01-24 16:33:00,
2013-01-24 11:43:00,13.0,7.0,30.63,NNE,19,4.0,8.0,75,0.00,,,0.00,,2013-01-24 16:43:00,
2013-01-24 12:03:00,14.0,7.0,30.63,NW,323,3.0,6.0,72,0.00,,,0.00,,2013-01-24 17:03:00,
2013-01-24 12:12:00,14.0,7.0,30.63,NW,323,3.0,6.0,72,0.00,,,0.00,,2013-01-24 17:12:00,
2013-01-24 12:22:00,14.0,7.0,30.63,NW,323,3.0,6.0,72,0.00,,,0.00,,2013-01-24 17:22:00,
2013-01-24 12:32:00,15.0,7.0,30.62,NW,323,4.0,7.0,71,0.00,,,0.00,,2013-01-24 17:32:00,
2013-01-24 12:42:00,15.0,7.0,30.62,NW,323,4.0,7.0,71,0.00,,,0.00,,2013-01-24 17:42:00,
2013-01-24 12:52:00,16.0,8.0,30.62,WNW,298,3.0,7.0,71,0.00,,,0.00,,2013-01-24 17:52:00,
2013-01-24 13:03:00,16.0,7.0,30.61,NW,305,2.0,8.0,68,0.00,,,0.00,,2013-01-24 18:03:00,
2013-01-24 13:12:00,17.0,9.0,30.60,NW,313,3.0,5.0,69,0.00,,,0.00,,2013-01-24 18:12:00,
2013-01-24 13:23:00,17.0,9.0,30.60,NW,313,3.0,5.0,69,0.00,,,0.00,,2013-01-24 18:23:00,
2013-01-24 13:33:00,17.0,8.0,30.60,NW,305,3.0,5.0,68,0.00,,,0.00,,2013-01-24 18:33:00,
2013-01-24 13:42:00,17.0,8.0,30.60,NW,305,3.0,5.0,68,0.00,,,0.00,,2013-01-24 18:42:00,
2013-01-24 13:53:00,18.0,9.0,30.60,NNW,340,2.0,7.0,67,0.00,,,0.00,,2013-01-24 18:53:00,
2013-01-24 14:02:00,18.0,8.0,30.60,NW,308,2.0,5.0,63,0.00,,,0.00,,2013-01-24 19:02:00,
2013-01-24 14:13:00,18.0,8.0,30.60,NW,308,2.0,5.0,63,0.00,,,0.00,,2013-01-24 19:13:00,
2013-01-24 14:22:00,18.0,7.0,30.60,NNE,23,3.0,8.0,61,0.00,,,0.00,,2013-01-24 19:22:00,
2013-01-24 14:33:00,18.0,6.0,30.60,NW,312,3.0,6.0,58,0.00,,,0.00,,2013-01-24 19:33:00,
2013-01-24 14:42:00,18.0,6.0,30.60,NW,312,3.0,6.0,58,0.00,,,0.00,,2013-01-24 19:42:00,
2013-01-24 14:52:00,18.0,5.0,30.60,WNW,302,4.0,6.0,55,0.00,,,0.00,,2013-01-24 19:52:00,
2013-01-24 15:02:00,18.0,3.0,30.60,North,9,2.0,6.0,51,0.00,,,0.00,,2013-01-24 20:02:00,
2013-01-24 15:12:00,18.0,3.0,30.60,North,9,2.0,6.0,51,0.00,,,0.00,,2013-01-24 20:12:00,
2013-01-24 15:22:00,18.0,3.0,30.60,NW,309,4.0,8.0,52,0.00,,,0.00,,2013-01-24 20:22:00,
2013-01-24 15:33:00,18.0,2.0,30.60,NNW,330,2.0,7.0,48,0.00,,,0.00,,2013-01-24 20:33:00,
2013-01-24 15:42:00,18.0,2.0,30.60,NNW,330,2.0,7.0,48,0.00,,,0.00,,2013-01-24 20:42:00,
2013-01-24 15:52:00,18.0,3.0,30.60,NW,323,3.0,7.0,50,0.00,,,0.00,,2013-01-24 20:52:00,
2013-01-24 16:03:00,18.0,2.0,30.60,NNW,330,2.0,6.0,49,0.00,,,0.00,,2013-01-24 21:03:00,
2013-01-24 16:12:00,18.0,2.0,30.60,NNW,330,2.0,6.0,49,0.00,,,0.00,,2013-01-24 21:12:00,
2013-01-24 16:22:00,17.0,1.0,30.60,NW,309,2.0,5.0,49,0.00,,,0.00,,2013-01-24 21:22:00,
2013-01-24 16:33:00,18.0,4.0,30.60,NW,314,1.0,5.0,54,0.00,,,0.00,,2013-01-24 21:33:00,
2013-01-24 16:43:00,18.0,4.0,30.60,NW,314,1.0,5.0,54,0.00,,,0.00,,2013-01-24 21:43:00,
2013-01-24 16:52:00,17.0,4.0,30.60,WNW,295,1.0,4.0,55,0.00,,,0.00,,2013-01-24 21:52:00,
2013-01-24 17:03:00,17.0,4.0,30.60,NE,43,2.0,4.0,56,0.00,,,0.00,,2013-01-24 22:03:00,
2013-01-24 17:12:00,17.0,4.0,30.60,NE,43,2.0,4.0,56,0.00,,,0.00,,2013-01-24 22:12:00,
2013-01-24 17:22:00,17.0,4.0,30.60,NNW,348,0.0,2.0,57,0.00,,,0.00,,2013-01-24 22:22:00,
2013-01-24 17:33:00,16.0,3.0,30.60,ENE,60,0.0,3.0,57,0.00,,,0.00,,2013-01-24 22:33:00,
2013-01-24 17:42:00,16.0,3.0,30.60,ENE,60,0.0,3.0,57,0.00,,,0.00,,2013-01-24 22:42:00,
2013-01-24 17:52:00,16.0,4.0,30.60,ENE,60,0.0,1.0,58,0.00,,,0.00,,2013-01-24 22:52:00,
2013-01-24 18:03:00,16.0,4.0,30.60,ENE,60,0.0,0.0,59,0.00,,,0.00,,2013-01-24 23:03:00,
2013-01-24 18:12:00,16.0,4.0,30.60,ENE,60,0.0,0.0,59,0.00,,,0.00,,2013-01-24 23:12:00,
2013-01-24 18:22:00,15.0,3.0,30.60,ENE,60,0.0,0.0,59,0.00,,,0.00,,2013-01-24 23:22:00,
2013-01-24 18:32:00,15.0,4.0,30.60,ENE,60,0.0,0.0,60,0.00,,,0.00,,2013-01-24 23:32:00,
2013-01-24 18:42:00,15.0,4.0,30.60,ENE,60,0.0,0.0,60,0.00,,,0.00,,2013-01-24 23:42:00,
2013-01-24 18:52:00,16.0,9.0,30.60,ENE,60,0.0,0.0,74,0.00,,,0.00,,2013-01-24 23:52:00,
2013-01-24 19:02:00,16.0,6.0,30.60,ENE,60,0.0,0.0,64,0.00,,,0.00,,2013-01-25 00:02:00,
2013-01-24 19:12:00,16.0,6.0,30.60,ENE,60,0.0,0.0,64,0.00,,,0.00,,2013-01-25 00:12:00,
2013-01-24 19:22:00,15.0,6.0,30.60,ENE,60,0.0,0.0,67,0.00,,,0.00,,2013-01-25 00:22:00,
2013-01-24 19:32:00,15.0,6.0,30.60,ENE,60,0.0,0.0,68,0.00,,,0.00,,2013-01-25 00:32:00,
2013-01-24 19:42:00,15.0,6.0,30.60,ENE,60,0.0,0.0,68,0.00,,,0.00,,2013-01-25 00:42:00,
2013-01-24 19:52:00,13.0,3.0,30.60,ENE,60,0.0,0.0,65,0.00,,,0.00,,2013-01-25 00:52:00,
2013-01-24 20:02:00,13.0,4.0,30.60,ENE,60,0.0,0.0,68,0.00,,,0.00,,2013-01-25 01:02:00,
2013-01-24 20:12:00,13.0,4.0,30.60,ENE,60,0.0,0.0,68,0.00,,,0.00,,2013-01-25 01:12:00,
2013-01-24 20:22:00,13.0,7.0,30.59,ENE,60,0.0,1.0,77,0.00,,,0.00,,2013-01-25 01:22:00,
2013-01-24 20:32:00,14.0,7.0,30.58,ENE,60,0.0,0.0,72,0.00,,,0.00,,2013-01-25 01:32:00,
2013-01-24 20:42:00,14.0,7.0,30.58,ENE,60,0.0,0.0,72,0.00,,,0.00,,2013-01-25 01:42:00,
2013-01-24 20:52:00,13.0,6.0,30.58,ENE,60,0.0,0.0,74,0.00,,,0.00,,2013-01-25 01:52:00,
2013-01-24 21:03:00,13.0,8.0,30.58,ENE,60,0.0,0.0,79,0.00,,,0.00,,2013-01-25 02:03:00,
2013-01-24 21:12:00,13.0,8.0,30.58,ENE,60,0.0,0.0,79,0.00,,,0.00,,2013-01-25 02:12:00,
2013-01-24 21:22:00,14.0,8.0,30.56,ENE,60,0.0,1.0,75,0.00,,,0.00,,2013-01-25 02:22:00,
2013-01-24 21:33:00,14.0,10.0,30.57,ENE,60,0.0,0.0,82,0.00,,,0.00,,2013-01-25 02:33:00,
2013-01-24 21:42:00,14.0,10.0,30.57,ENE,60,0.0,0.0,82,0.00,,,0.00,,2013-01-25 02:42:00,
2013-01-24 21:52:00,14.0,7.0,30.57,ENE,60,0.0,1.0,74,0.00,,,0.00,,2013-01-25 02:52:00,
2013-01-24 22:02:00,14.0,7.0,30.56,ENE,60,0.0,1.0,74,0.00,,,0.00,,2013-01-25 03:02:00,
2013-01-24 22:12:00,14.0,7.0,30.56,ENE,60,0.0,0.0,72,0.00,,,0.00,,2013-01-25 03:12:00,
2013-01-24 22:22:00,14.0,7.0,30.56,ENE,60,0.0,0.0,72,0.00,,,0.00,,2013-01-25 03:22:00,
2013-01-24 22:33:00,15.0,7.0,30.55,SE,142,0.0,1.0,70,0.00,,,0.00,,2013-01-25 03:33:00,
2013-01-24 22:42:00,15.0,7.0,30.55,SE,142,0.0,1.0,70,0.00,,,0.00,,2013-01-25 03:42:00,
2013-01-24 22:52:00,15.0,6.0,30.56,SE,134,1.0,3.0,66,0.00,,,0.00,,2013-01-25 03:52:00,
2013-01-24 23:02:00,15.0,6.0,30.55,SE,136,1.0,2.0,67,0.00,,,0.00,,2013-01-25 04:02:00,
2013-01-24 23:12:00,15.0,6.0,30.55,SE,136,1.0,2.0,67,0.00,,,0.00,,2013-01-25 04:12:00,
2013-01-24 23:22:00,15.0,6.0,30.55,SE,124,0.0,2.0,68,0.00,,,0.00,,2013-01-25 04:22:00,
2013-01-24 23:32:00,16.0,8.0,30.55,SSE,158,0.0,3.0,69,0.00,,,0.00,,2013-01-25 04:32:00,
2013-01-24 23:42:00,16.0,8.0,30.55,SSE,158,0.0,3.0,69,0.00,,,0.00,,2013-01-25 04:42:00,
2013-01-24 23:51:00,16.0,8.0,30.54,ESE,122,1.0,4.0,70,0.00,,,0.00,,2013-01-25 04:51:00,